sensor_id;sensor_type;location;lat;lon;timestamp;pressure;altitude;pressure_sealevel;temperature;humidity
69411;BME280;56604;48.652;9.194;2023-05-02T00:00:35;96327.41;;;8.77;97.24
69411;BME280;56604;48.652;9.194;2023-05-02T00:03:01;96319.53;;;8.77;96.80
69411;BME280;56604;48.652;9.194;2023-05-02T00:05:28;96319.28;;;8.78;97.74
69411;BME280;56604;48.652;9.194;2023-05-02T00:07:53;96322.84;;;8.72;97.24
69411;BME280;56604;48.652;9.194;2023-05-02T00:10:18;96314.19;;;8.72;97.91
69411;BME280;56604;48.652;9.194;2023-05-02T00:12:44;96312.59;;;8.71;97.45
69411;BME280;56604;48.652;9.194;2023-05-02T00:15:09;96316.41;;;8.63;98.52
69411;BME280;56604;48.652;9.194;2023-05-02T00:17:35;96311.47;;;8.67;98.16
69411;BME280;56604;48.652;9.194;2023-05-02T00:20:01;96311.16;;;8.63;98.06
69411;BME280;56604;48.652;9.194;2023-05-02T00:22:28;96313.78;;;8.63;97.53
69411;BME280;56604;48.652;9.194;2023-05-02T00:24:57;96316.41;;;8.63;97.54
69411;BME280;56604;48.652;9.194;2023-05-02T00:27:23;96315.59;;;8.63;97.65
69411;BME280;56604;48.652;9.194;2023-05-02T00:29:48;96311.28;;;8.56;98.16
69411;BME280;56604;48.652;9.194;2023-05-02T00:32:13;96314.03;;;8.50;97.39
69411;BME280;56604;48.652;9.194;2023-05-02T00:34:39;96313.25;;;8.49;98.42
69411;BME280;56604;48.652;9.194;2023-05-02T00:37:04;96319.84;;;8.52;98.37
69411;BME280;56604;48.652;9.194;2023-05-02T00:39:30;96315.09;;;8.49;97.73
69411;BME280;56604;48.652;9.194;2023-05-02T00:41:56;96311.78;;;8.42;98.55
69411;BME280;56604;48.652;9.194;2023-05-02T00:44:22;96309.41;;;8.40;97.97
69411;BME280;56604;48.652;9.194;2023-05-02T00:46:47;96322.03;;;8.43;98.34
69411;BME280;56604;48.652;9.194;2023-05-02T00:49:12;96319.28;;;8.38;98.98
69411;BME280;56604;48.652;9.194;2023-05-02T00:51:38;96319.97;;;8.33;98.73
69411;BME280;56604;48.652;9.194;2023-05-02T00:54:04;96325.94;;;8.29;98.70
69411;BME280;56604;48.652;9.194;2023-05-02T00:56:30;96324.91;;;8.30;98.68
69411;BME280;56604;48.652;9.194;2023-05-02T00:58:55;96319.66;;;8.30;99.26
69411;BME280;56604;48.652;9.194;2023-05-02T01:06:32;96324.47;;;8.21;98.95
69411;BME280;56604;48.652;9.194;2023-05-02T01:09:25;96313.53;;;8.24;98.68
69411;BME280;56604;48.652;9.194;2023-05-02T01:12:01;96326.50;;;8.19;99.29
69411;BME280;56604;48.652;9.194;2023-05-02T01:14:34;96327.22;;;8.15;99.40
69411;BME280;56604;48.652;9.194;2023-05-02T01:17:06;96331.88;;;8.13;99.47
69411;BME280;56604;48.652;9.194;2023-05-02T01:19:35;96335.53;;;8.11;99.03
69411;BME280;56604;48.652;9.194;2023-05-02T01:22:04;96336.19;;;8.19;99.09
69411;BME280;56604;48.652;9.194;2023-05-02T01:24:57;96339.75;;;8.13;99.44
69411;BME280;56604;48.652;9.194;2023-05-02T01:27:33;96341.56;;;8.12;99.21
69411;BME280;56604;48.652;9.194;2023-05-02T01:30:01;96329.84;;;8.15;99.10
69411;BME280;56604;48.652;9.194;2023-05-02T01:32:29;96336.53;;;8.10;99.04
69411;BME280;56604;48.652;9.194;2023-05-02T01:34:56;96338.25;;;8.05;98.58
69411;BME280;56604;48.652;9.194;2023-05-02T01:37:23;96329.72;;;8.09;98.76
69411;BME280;56604;48.652;9.194;2023-05-02T01:39:50;96337.59;;;8.09;98.92
69411;BME280;56604;48.652;9.194;2023-05-02T01:42:16;96341.78;;;8.10;99.09
69411;BME280;56604;48.652;9.194;2023-05-02T01:44:43;96336.91;;;8.02;98.81
69411;BME280;56604;48.652;9.194;2023-05-02T01:47:11;96333.38;;;7.97;99.23
69411;BME280;56604;48.652;9.194;2023-05-02T01:49:37;96339.50;;;8.02;98.44
69411;BME280;56604;48.652;9.194;2023-05-02T01:52:07;96332.25;;;7.93;98.42
69411;BME280;56604;48.652;9.194;2023-05-02T01:54:35;96340.31;;;7.91;98.51
69411;BME280;56604;48.652;9.194;2023-05-02T01:57:04;96332.59;;;7.96;99.34
69411;BME280;56604;48.652;9.194;2023-05-02T01:59:30;96341.69;;;7.94;98.18
69411;BME280;56604;48.652;9.194;2023-05-02T02:01:58;96342.59;;;7.99;98.92
69411;BME280;56604;48.652;9.194;2023-05-02T02:04:24;96340.91;;;7.93;99.03
69411;BME280;56604;48.652;9.194;2023-05-02T02:06:54;96341.16;;;7.92;98.47
69411;BME280;56604;48.652;9.194;2023-05-02T02:09:22;96336.22;;;7.95;98.61
69411;BME280;56604;48.652;9.194;2023-05-02T02:12:01;96338.75;;;7.90;99.30
69411;BME280;56604;48.652;9.194;2023-05-02T02:14:34;96342.03;;;7.97;99.25
69411;BME280;56604;48.652;9.194;2023-05-02T02:17:01;96345.00;;;8.01;98.85
69411;BME280;56604;48.652;9.194;2023-05-02T02:19:30;96346.25;;;7.98;99.07
69411;BME280;56604;48.652;9.194;2023-05-02T02:21:57;96354.31;;;7.97;98.54
69411;BME280;56604;48.652;9.194;2023-05-02T02:24:23;96351.16;;;7.95;98.52
69411;BME280;56604;48.652;9.194;2023-05-02T02:26:50;96356.38;;;7.95;98.91
69411;BME280;56604;48.652;9.194;2023-05-02T02:29:15;96356.28;;;7.89;98.64
69411;BME280;56604;48.652;9.194;2023-05-02T02:31:40;96361.25;;;7.91;99.37
69411;BME280;56604;48.652;9.194;2023-05-02T02:34:06;96364.34;;;7.88;99.74
69411;BME280;56604;48.652;9.194;2023-05-02T02:36:41;96364.34;;;7.88;99.83
69411;BME280;56604;48.652;9.194;2023-05-02T02:41:43;96370.94;;;7.91;99.39
69411;BME280;56604;48.652;9.194;2023-05-02T02:46:52;96377.53;;;7.81;98.77
69411;BME280;56604;48.652;9.194;2023-05-02T02:49:47;96381.19;;;7.80;99.60
69411;BME280;56604;48.652;9.194;2023-05-02T02:52:20;96386.66;;;7.79;98.64
69411;BME280;56604;48.652;9.194;2023-05-02T02:54:56;96380.16;;;7.70;98.44
69411;BME280;56604;48.652;9.194;2023-05-02T02:57:46;96381.19;;;7.69;99.69
69411;BME280;56604;48.652;9.194;2023-05-02T03:00:20;96384.34;;;7.59;99.32
69411;BME280;56604;48.652;9.194;2023-05-02T03:02:47;96393.13;;;7.64;99.51
69411;BME280;56604;48.652;9.194;2023-05-02T03:05:13;96385.72;;;7.61;99.33
69411;BME280;56604;48.652;9.194;2023-05-02T03:07:40;96391.53;;;7.63;99.67
69411;BME280;56604;48.652;9.194;2023-05-02T03:10:06;96404.16;;;7.66;99.58
69411;BME280;56604;48.652;9.194;2023-05-02T03:12:32;96402.13;;;7.69;99.84
69411;BME280;56604;48.652;9.194;2023-05-02T03:15:07;96405.16;;;7.65;99.96
69411;BME280;56604;48.652;9.194;2023-05-02T03:17:37;96402.13;;;7.69;100.00
69411;BME280;56604;48.652;9.194;2023-05-02T03:20:03;96408.81;;;7.64;100.00
69411;BME280;56604;48.652;9.194;2023-05-02T03:22:28;96408.38;;;7.68;99.34
69411;BME280;56604;48.652;9.194;2023-05-02T03:24:54;96409.53;;;7.72;99.94
69411;BME280;56604;48.652;9.194;2023-05-02T03:27:19;96420.31;;;7.75;99.69
69411;BME280;56604;48.652;9.194;2023-05-02T03:29:44;96424.91;;;7.80;99.17
69411;BME280;56604;48.652;9.194;2023-05-02T03:32:09;96422.50;;;7.90;99.40
69411;BME280;56604;48.652;9.194;2023-05-02T03:34:35;96424.19;;;7.96;99.72
69411;BME280;56604;48.652;9.194;2023-05-02T03:37:00;96425.47;;;8.05;98.92
69411;BME280;56604;48.652;9.194;2023-05-02T03:39:25;96432.63;;;7.98;99.56
69411;BME280;56604;48.652;9.194;2023-05-02T03:41:51;96438.00;;;8.03;98.95
69411;BME280;56604;48.652;9.194;2023-05-02T03:44:16;96436.63;;;8.13;98.94
69411;BME280;56604;48.652;9.194;2023-05-02T03:46:42;96441.84;;;8.13;98.94
69411;BME280;56604;48.652;9.194;2023-05-02T03:49:07;96443.34;;;8.20;99.59
69411;BME280;56604;48.652;9.194;2023-05-02T03:51:32;96444.47;;;8.24;99.19
69411;BME280;56604;48.652;9.194;2023-05-02T03:53:59;96450.50;;;8.25;99.19
69411;BME280;56604;48.652;9.194;2023-05-02T03:56:25;96452.66;;;8.28;98.18
69411;BME280;56604;48.652;9.194;2023-05-02T03:58:50;96458.94;;;8.27;98.63
69411;BME280;56604;48.652;9.194;2023-05-02T04:01:16;96456.56;;;8.25;98.36
69411;BME280;56604;48.652;9.194;2023-05-02T04:03:41;96462.13;;;8.29;98.10
69411;BME280;56604;48.652;9.194;2023-05-02T04:06:07;96465.19;;;8.26;98.05
69411;BME280;56604;48.652;9.194;2023-05-02T04:08:33;96466.00;;;8.26;97.94
69411;BME280;56604;48.652;9.194;2023-05-02T04:10:58;96474.53;;;8.33;98.44
69411;BME280;56604;48.652;9.194;2023-05-02T04:13:23;96473.72;;;8.33;98.43
69411;BME280;56604;48.652;9.194;2023-05-02T04:15:49;96475.47;;;8.39;98.56
69411;BME280;56604;48.652;9.194;2023-05-02T04:18:14;96476.94;;;8.47;98.68
69411;BME280;56604;48.652;9.194;2023-05-02T04:20:42;96478.19;;;8.44;98.78
69411;BME280;56604;48.652;9.194;2023-05-02T04:23:08;96480.81;;;8.44;97.97
69411;BME280;56604;48.652;9.194;2023-05-02T04:25:34;96493.44;;;8.47;98.42
69411;BME280;56604;48.652;9.194;2023-05-02T04:27:59;96488.31;;;8.52;98.39
69411;BME280;56604;48.652;9.194;2023-05-02T04:30:25;96484.91;;;8.52;97.77
69411;BME280;56604;48.652;9.194;2023-05-02T04:32:50;96483.88;;;8.53;97.86
69411;BME280;56604;48.652;9.194;2023-05-02T04:35:16;96489.81;;;8.60;97.78
69411;BME280;56604;48.652;9.194;2023-05-02T04:37:42;96489.91;;;8.53;98.12
69411;BME280;56604;48.652;9.194;2023-05-02T04:40:07;96497.88;;;8.59;98.32
69411;BME280;56604;48.652;9.194;2023-05-02T04:42:33;96493.56;;;8.52;98.41
69411;BME280;56604;48.652;9.194;2023-05-02T04:44:58;96500.41;;;8.53;97.85
69411;BME280;56604;48.652;9.194;2023-05-02T04:47:24;96506.91;;;8.51;97.26
69411;BME280;56604;48.652;9.194;2023-05-02T04:49:49;96499.69;;;8.70;98.37
69411;BME280;56604;48.652;9.194;2023-05-02T04:52:15;96505.81;;;9.28;97.44
69411;BME280;56604;48.652;9.194;2023-05-02T04:54:40;96502.66;;;9.26;95.46
69411;BME280;56604;48.652;9.194;2023-05-02T04:57:05;96508.19;;;9.00;94.06
69411;BME280;56604;48.652;9.194;2023-05-02T04:59:32;96506.09;;;8.74;96.28
69411;BME280;56604;48.652;9.194;2023-05-02T05:01:58;96506.19;;;8.79;96.26
69411;BME280;56604;48.652;9.194;2023-05-02T05:04:23;96511.63;;;8.89;95.90
69411;BME280;56604;48.652;9.194;2023-05-02T05:06:49;96516.09;;;8.89;96.27
69411;BME280;56604;48.652;9.194;2023-05-02T05:09:14;96521.63;;;9.04;95.44
69411;BME280;56604;48.652;9.194;2023-05-02T05:11:40;96512.72;;;9.17;95.16
69411;BME280;56604;48.652;9.194;2023-05-02T05:14:07;96517.13;;;9.28;94.48
69411;BME280;56604;48.652;9.194;2023-05-02T05:16:32;96519.25;;;9.43;93.83
69411;BME280;56604;48.652;9.194;2023-05-02T05:18:58;96522.00;;;9.65;93.35
69411;BME280;56604;48.652;9.194;2023-05-02T05:21:24;96525.81;;;9.57;92.15
69411;BME280;56604;48.652;9.194;2023-05-02T05:23:49;96521.03;;;9.54;92.53
69411;BME280;56604;48.652;9.194;2023-05-02T05:26:15;96519.63;;;9.80;91.27
69411;BME280;56604;48.652;9.194;2023-05-02T05:28:41;96532.53;;;9.99;90.13
69411;BME280;56604;48.652;9.194;2023-05-02T05:31:11;96533.50;;;10.09;89.01
69411;BME280;56604;48.652;9.194;2023-05-02T05:33:38;96539.25;;;10.23;88.02
69411;BME280;56604;48.652;9.194;2023-05-02T05:36:10;96539.97;;;10.35;88.29
69411;BME280;56604;48.652;9.194;2023-05-02T05:38:36;96541.19;;;10.45;87.57
69411;BME280;56604;48.652;9.194;2023-05-02T05:41:02;96556.09;;;10.56;87.62
69411;BME280;56604;48.652;9.194;2023-05-02T05:43:29;96568.28;;;10.45;87.73
69411;BME280;56604;48.652;9.194;2023-05-02T05:45:54;96565.47;;;10.52;88.05
69411;BME280;56604;48.652;9.194;2023-05-02T05:48:20;96566.25;;;10.52;88.37
69411;BME280;56604;48.652;9.194;2023-05-02T05:50:45;96569.50;;;10.76;87.25
69411;BME280;56604;48.652;9.194;2023-05-02T05:53:11;96579.16;;;10.88;87.11
69411;BME280;56604;48.652;9.194;2023-05-02T05:55:37;96574.72;;;11.10;85.74
69411;BME280;56604;48.652;9.194;2023-05-02T05:58:03;96568.56;;;11.26;85.52
69411;BME280;56604;48.652;9.194;2023-05-02T06:00:28;96573.78;;;11.43;84.41
69411;BME280;56604;48.652;9.194;2023-05-02T06:02:54;96576.78;;;11.52;84.28
69411;BME280;56604;48.652;9.194;2023-05-02T06:05:19;96585.28;;;11.81;82.72
69411;BME280;56604;48.652;9.194;2023-05-02T06:07:44;96585.91;;;12.15;81.56
69411;BME280;56604;48.652;9.194;2023-05-02T06:10:10;96583.72;;;12.07;80.61
69411;BME280;56604;48.652;9.194;2023-05-02T06:12:36;96587.22;;;11.91;82.00
69411;BME280;56604;48.652;9.194;2023-05-02T06:15:01;96585.41;;;12.19;81.07
69411;BME280;56604;48.652;9.194;2023-05-02T06:17:26;96593.84;;;11.71;81.16
69411;BME280;56604;48.652;9.194;2023-05-02T06:19:52;96597.22;;;11.89;80.87
69411;BME280;56604;48.652;9.194;2023-05-02T06:22:17;96595.94;;;11.91;81.48
69411;BME280;56604;48.652;9.194;2023-05-02T06:24:42;96596.47;;;11.71;81.41
69411;BME280;56604;48.652;9.194;2023-05-02T06:27:08;96600.22;;;11.76;81.76
69411;BME280;56604;48.652;9.194;2023-05-02T06:29:33;96611.25;;;11.51;82.16
69411;BME280;56604;48.652;9.194;2023-05-02T06:31:58;96617.03;;;11.47;82.85
69411;BME280;56604;48.652;9.194;2023-05-02T06:34:24;96617.84;;;11.31;83.19
69411;BME280;56604;48.652;9.194;2023-05-02T06:36:56;96621.88;;;11.17;83.91
69411;BME280;56604;48.652;9.194;2023-05-02T06:39:21;96631.13;;;11.19;84.70
69411;BME280;56604;48.652;9.194;2023-05-02T06:41:46;96621.78;;;11.29;84.17
69411;BME280;56604;48.652;9.194;2023-05-02T06:44:12;96634.78;;;11.18;85.00
69411;BME280;56604;48.652;9.194;2023-05-02T06:46:38;96628.88;;;11.28;84.43
69411;BME280;56604;48.652;9.194;2023-05-02T06:49:03;96637.50;;;11.23;84.75
69411;BME280;56604;48.652;9.194;2023-05-02T06:51:28;96640.19;;;11.29;85.20
69411;BME280;56604;48.652;9.194;2023-05-02T06:53:54;96632.38;;;11.34;84.60
69411;BME280;56604;48.652;9.194;2023-05-02T06:56:19;96635.88;;;11.39;84.74
69411;BME280;56604;48.652;9.194;2023-05-02T06:58:44;96639.16;;;11.52;84.65
69411;BME280;56604;48.652;9.194;2023-05-02T07:01:10;96634.03;;;11.62;83.44
69411;BME280;56604;48.652;9.194;2023-05-02T07:03:36;96638.81;;;11.65;82.97
69411;BME280;56604;48.652;9.194;2023-05-02T07:06:01;96651.22;;;11.69;82.24
69411;BME280;56604;48.652;9.194;2023-05-02T07:08:27;96644.56;;;11.62;83.24
69411;BME280;56604;48.652;9.194;2023-05-02T07:10:52;96654.41;;;11.28;84.55
69411;BME280;56604;48.652;9.194;2023-05-02T07:13:18;96665.09;;;11.04;86.31
69411;BME280;56604;48.652;9.194;2023-05-02T07:15:43;96664.66;;;10.73;87.75
69411;BME280;56604;48.652;9.194;2023-05-02T07:18:08;96661.69;;;11.42;86.08
69411;BME280;56604;48.652;9.194;2023-05-02T07:20:34;96666.75;;;12.10;83.32
69411;BME280;56604;48.652;9.194;2023-05-02T07:22:59;96667.53;;;12.10;82.96
69411;BME280;56604;48.652;9.194;2023-05-02T07:25:24;96663.19;;;12.26;82.81
69411;BME280;56604;48.652;9.194;2023-05-02T07:27:50;96668.25;;;12.28;82.83
69411;BME280;56604;48.652;9.194;2023-05-02T07:30:15;96664.47;;;12.19;81.92
69411;BME280;56604;48.652;9.194;2023-05-02T07:32:40;96667.25;;;12.34;82.11
69411;BME280;56604;48.652;9.194;2023-05-02T07:35:06;96671.50;;;12.40;82.00
69411;BME280;56604;48.652;9.194;2023-05-02T07:37:32;96677.47;;;12.57;81.51
69411;BME280;56604;48.652;9.194;2023-05-02T07:39:59;96674.50;;;12.49;81.49
69411;BME280;56604;48.652;9.194;2023-05-02T07:42:30;96673.00;;;12.31;82.15
69411;BME280;56604;48.652;9.194;2023-05-02T07:44:57;96679.56;;;12.28;82.46
69411;BME280;56604;48.652;9.194;2023-05-02T07:47:22;96676.09;;;12.23;81.87
69411;BME280;56604;48.652;9.194;2023-05-02T07:49:51;96681.78;;;12.69;81.06
69411;BME280;56604;48.652;9.194;2023-05-02T07:52:18;96684.84;;;12.55;80.00
69411;BME280;56604;48.652;9.194;2023-05-02T07:54:43;96679.41;;;12.67;79.37
69411;BME280;56604;48.652;9.194;2023-05-02T07:57:08;96673.84;;;12.64;80.20
69411;BME280;56604;48.652;9.194;2023-05-02T07:59:34;96674.53;;;12.81;77.98
69411;BME280;56604;48.652;9.194;2023-05-02T08:01:59;96680.66;;;12.92;77.22
69411;BME280;56604;48.652;9.194;2023-05-02T08:04:24;96688.09;;;13.32;75.27
69411;BME280;56604;48.652;9.194;2023-05-02T08:06:50;96686.59;;;13.46;75.42
69411;BME280;56604;48.652;9.194;2023-05-02T08:09:15;96694.63;;;13.67;73.56
69411;BME280;56604;48.652;9.194;2023-05-02T08:11:41;96698.31;;;13.66;74.17
69411;BME280;56604;48.652;9.194;2023-05-02T08:14:06;96696.19;;;13.68;73.72
69411;BME280;56604;48.652;9.194;2023-05-02T08:16:31;96708.03;;;13.18;74.21
69411;BME280;56604;48.652;9.194;2023-05-02T08:18:56;96708.25;;;13.48;74.27
69411;BME280;56604;48.652;9.194;2023-05-02T08:21:22;96701.47;;;13.63;72.93
69411;BME280;56604;48.652;9.194;2023-05-02T08:23:47;96715.66;;;13.46;74.39
69411;BME280;56604;48.652;9.194;2023-05-02T08:26:12;96702.50;;;13.62;73.52
69411;BME280;56604;48.652;9.194;2023-05-02T08:28:38;96710.63;;;13.98;72.34
69411;BME280;56604;48.652;9.194;2023-05-02T08:31:04;96711.59;;;13.81;73.27
69411;BME280;56604;48.652;9.194;2023-05-02T08:33:29;96717.53;;;14.09;72.43
69411;BME280;56604;48.652;9.194;2023-05-02T08:35:54;96720.56;;;13.80;73.27
69411;BME280;56604;48.652;9.194;2023-05-02T08:38:20;96728.03;;;13.93;72.23
69411;BME280;56604;48.652;9.194;2023-05-02T08:40:45;96716.97;;;14.02;71.63
69411;BME280;56604;48.652;9.194;2023-05-02T08:43:12;96727.19;;;13.78;72.71
69411;BME280;56604;48.652;9.194;2023-05-02T08:45:42;96725.75;;;13.60;73.40
69411;BME280;56604;48.652;9.194;2023-05-02T08:48:10;96723.28;;;13.95;73.35
69411;BME280;56604;48.652;9.194;2023-05-02T08:50:40;96718.13;;;14.36;71.74
69411;BME280;56604;48.652;9.194;2023-05-02T08:53:07;96724.00;;;14.54;70.17
69411;BME280;56604;48.652;9.194;2023-05-02T08:55:36;96719.53;;;14.54;70.77
69411;BME280;56604;48.652;9.194;2023-05-02T08:58:04;96723.00;;;14.80;68.85
69411;BME280;56604;48.652;9.194;2023-05-02T09:00:29;96731.47;;;15.23;67.89
69411;BME280;56604;48.652;9.194;2023-05-02T09:03:05;96736.47;;;15.50;66.93
69411;BME280;56604;48.652;9.194;2023-05-02T09:05:32;96743.13;;;14.97;67.64
69411;BME280;56604;48.652;9.194;2023-05-02T09:08:03;96746.56;;;15.02;67.15
69411;BME280;56604;48.652;9.194;2023-05-02T09:10:29;96745.75;;;14.97;67.68
69411;BME280;56604;48.652;9.194;2023-05-02T09:12:55;96747.28;;;15.85;66.42
69411;BME280;56604;48.652;9.194;2023-05-02T09:15:20;96744.69;;;15.69;65.26
69411;BME280;56604;48.652;9.194;2023-05-02T09:17:47;96747.31;;;15.59;66.83
69411;BME280;56604;48.652;9.194;2023-05-02T09:20:14;96749.72;;;15.56;65.70
69411;BME280;56604;48.652;9.194;2023-05-02T09:22:51;96747.03;;;15.81;65.10
69411;BME280;56604;48.652;9.194;2023-05-02T09:25:18;96753.09;;;15.92;64.93
69411;BME280;56604;48.652;9.194;2023-05-02T09:27:51;96747.00;;;16.51;64.76
69411;BME280;56604;48.652;9.194;2023-05-02T09:30:18;96742.19;;;16.58;64.22
69411;BME280;56604;48.652;9.194;2023-05-02T09:32:44;96744.72;;;16.79;60.44
69411;BME280;56604;48.652;9.194;2023-05-02T09:35:10;96748.72;;;16.27;63.42
69411;BME280;56604;48.652;9.194;2023-05-02T09:37:35;96743.44;;;16.71;60.44
69411;BME280;56604;48.652;9.194;2023-05-02T09:40:05;96756.84;;;15.70;62.59
69411;BME280;56604;48.652;9.194;2023-05-02T09:42:31;96747.13;;;16.31;63.07
69411;BME280;56604;48.652;9.194;2023-05-02T09:44:56;96741.41;;;17.02;62.80
69411;BME280;56604;48.652;9.194;2023-05-02T09:47:25;96742.75;;;17.29;60.97
69411;BME280;56604;48.652;9.194;2023-05-02T09:49:51;96748.25;;;17.67;56.23
69411;BME280;56604;48.652;9.194;2023-05-02T09:52:18;96752.59;;;16.99;58.10
69411;BME280;56604;48.652;9.194;2023-05-02T09:54:46;96753.69;;;17.57;58.87
69411;BME280;56604;48.652;9.194;2023-05-02T09:57:14;96752.28;;;17.93;58.31
69411;BME280;56604;48.652;9.194;2023-05-02T09:59:40;96748.72;;;17.74;55.53
69411;BME280;56604;48.652;9.194;2023-05-02T10:02:06;96752.91;;;17.56;56.07
69411;BME280;56604;48.652;9.194;2023-05-02T10:04:34;96749.03;;;17.09;60.18
69411;BME280;56604;48.652;9.194;2023-05-02T10:07:01;96742.84;;;17.19;56.21
69411;BME280;56604;48.652;9.194;2023-05-02T10:09:28;96763.09;;;16.15;59.07
69411;BME280;56604;48.652;9.194;2023-05-02T10:11:57;96742.44;;;17.01;57.24
69411;BME280;56604;48.652;9.194;2023-05-02T10:14:28;96760.97;;;16.17;59.80
69411;BME280;56604;48.652;9.194;2023-05-02T10:16:59;96751.03;;;17.57;55.71
69411;BME280;56604;48.652;9.194;2023-05-02T10:19:38;96746.44;;;17.62;57.50
69411;BME280;56604;48.652;9.194;2023-05-02T10:22:06;96753.91;;;17.89;54.15
69411;BME280;56604;48.652;9.194;2023-05-02T10:24:32;96754.41;;;17.33;57.03
69411;BME280;56604;48.652;9.194;2023-05-02T10:26:58;96750.88;;;17.72;57.89
69411;BME280;56604;48.652;9.194;2023-05-02T10:29:30;96756.56;;;17.60;57.60
69411;BME280;56604;48.652;9.194;2023-05-02T10:31:56;96758.00;;;17.82;54.94
69411;BME280;56604;48.652;9.194;2023-05-02T10:34:22;96756.13;;;17.82;58.66
69411;BME280;56604;48.652;9.194;2023-05-02T10:36:47;96757.94;;;16.94;56.72
69411;BME280;56604;48.652;9.194;2023-05-02T10:39:13;96753.16;;;16.91;55.74
69411;BME280;56604;48.652;9.194;2023-05-02T10:41:39;96750.03;;;17.47;56.66
69411;BME280;56604;48.652;9.194;2023-05-02T10:44:05;96750.53;;;17.20;59.02
69411;BME280;56604;48.652;9.194;2023-05-02T10:46:37;96754.25;;;17.53;54.87
69411;BME280;56604;48.652;9.194;2023-05-02T10:49:06;96739.06;;;18.50;54.92
69411;BME280;56604;48.652;9.194;2023-05-02T10:51:32;96741.16;;;18.91;52.58
69411;BME280;56604;48.652;9.194;2023-05-02T10:57:06;96745.19;;;17.54;53.90
69411;BME280;56604;48.652;9.194;2023-05-02T10:59:36;96741.91;;;17.04;55.46
69411;BME280;56604;48.652;9.194;2023-05-02T11:02:45;96744.44;;;16.85;55.68
69411;BME280;56604;48.652;9.194;2023-05-02T11:05:03;96744.25;;;16.67;56.84
69411;BME280;56604;48.652;9.194;2023-05-02T11:07:30;96742.38;;;16.72;57.73
69411;BME280;56604;48.652;9.194;2023-05-02T11:12:49;96733.56;;;17.98;57.54
69411;BME280;56604;48.652;9.194;2023-05-02T11:18:02;96740.84;;;17.64;57.03
69411;BME280;56604;48.652;9.194;2023-05-02T11:20:29;96748.25;;;17.08;57.90
69411;BME280;56604;48.652;9.194;2023-05-02T11:22:57;96739.03;;;17.30;53.80
69411;BME280;56604;48.652;9.194;2023-05-02T11:25:33;96734.03;;;17.52;55.59
69411;BME280;56604;48.652;9.194;2023-05-02T11:27:59;96742.72;;;17.34;53.84
69411;BME280;56604;48.652;9.194;2023-05-02T11:30:42;96739.66;;;17.75;55.60
69411;BME280;56604;48.652;9.194;2023-05-02T11:35:34;96727.38;;;18.46;51.26
69411;BME280;56604;48.652;9.194;2023-05-02T11:38:03;96720.97;;;18.66;50.45
69411;BME280;56604;48.652;9.194;2023-05-02T11:40:29;96726.81;;;18.49;51.46
69411;BME280;56604;48.652;9.194;2023-05-02T11:42:56;96729.50;;;18.06;50.64
69411;BME280;56604;48.652;9.194;2023-05-02T11:45:31;96728.84;;;17.42;51.62
69411;BME280;56604;48.652;9.194;2023-05-02T11:47:58;96737.47;;;16.95;51.32
69411;BME280;56604;48.652;9.194;2023-05-02T11:50:23;96722.44;;;16.80;51.50
69411;BME280;56604;48.652;9.194;2023-05-02T11:52:50;96731.88;;;16.96;51.51
69411;BME280;56604;48.652;9.194;2023-05-02T11:55:16;96718.44;;;17.17;52.51
69411;BME280;56604;48.652;9.194;2023-05-02T11:57:41;96722.91;;;17.74;54.51
69411;BME280;56604;48.652;9.194;2023-05-02T12:00:07;96727.50;;;17.69;49.86
69411;BME280;56604;48.652;9.194;2023-05-02T12:02:43;96721.25;;;17.54;51.94
69411;BME280;56604;48.652;9.194;2023-05-02T12:05:11;96723.19;;;17.20;53.51
69411;BME280;56604;48.652;9.194;2023-05-02T12:07:41;96733.72;;;16.96;54.93
69411;BME280;56604;48.652;9.194;2023-05-02T12:10:08;96729.06;;;17.17;53.51
69411;BME280;56604;48.652;9.194;2023-05-02T12:12:34;96728.00;;;17.13;52.28
69411;BME280;56604;48.652;9.194;2023-05-02T12:15:18;96725.22;;;17.57;52.25
69411;BME280;56604;48.652;9.194;2023-05-02T12:17:46;96726.59;;;17.79;52.98
69411;BME280;56604;48.652;9.194;2023-05-02T12:20:17;96719.16;;;18.24;52.00
69411;BME280;56604;48.652;9.194;2023-05-02T12:22:42;96724.78;;;17.74;51.29
69411;BME280;56604;48.652;9.194;2023-05-02T12:25:08;96720.16;;;18.09;51.34
69411;BME280;56604;48.652;9.194;2023-05-02T12:27:33;96730.31;;;16.90;52.40
69411;BME280;56604;48.652;9.194;2023-05-02T12:29:59;96722.53;;;16.99;54.07
69411;BME280;56604;48.652;9.194;2023-05-02T12:32:30;96724.38;;;17.03;54.71
69411;BME280;56604;48.652;9.194;2023-05-02T12:34:57;96729.69;;;17.03;50.60
69411;BME280;56604;48.652;9.194;2023-05-02T12:37:23;96734.81;;;17.53;51.76
69411;BME280;56604;48.652;9.194;2023-05-02T12:39:49;96726.34;;;17.80;49.77
69411;BME280;56604;48.652;9.194;2023-05-02T12:42:16;96732.84;;;17.40;52.83
69411;BME280;56604;48.652;9.194;2023-05-02T12:44:43;96730.72;;;17.66;52.53
69411;BME280;56604;48.652;9.194;2023-05-02T12:47:11;96728.75;;;17.47;53.69
69411;BME280;56604;48.652;9.194;2023-05-02T12:49:57;96739.69;;;17.17;54.12
69411;BME280;56604;48.652;9.194;2023-05-02T12:52:45;96737.09;;;16.67;55.17
69411;BME280;56604;48.652;9.194;2023-05-02T12:55:22;96739.78;;;17.01;53.98
69411;BME280;56604;48.652;9.194;2023-05-02T12:58:05;96740.16;;;17.24;52.38
69411;BME280;56604;48.652;9.194;2023-05-02T13:00:33;96736.75;;;16.84;50.88
69411;BME280;56604;48.652;9.194;2023-05-02T13:02:59;96746.56;;;17.18;51.26
69411;BME280;56604;48.652;9.194;2023-05-02T13:05:24;96737.88;;;16.68;52.15
69411;BME280;56604;48.652;9.194;2023-05-02T13:07:50;96736.13;;;16.97;52.90
69411;BME280;56604;48.652;9.194;2023-05-02T13:10:16;96735.31;;;17.31;51.61
69411;BME280;56604;48.652;9.194;2023-05-02T13:12:44;96737.44;;;17.29;51.12
69411;BME280;56604;48.652;9.194;2023-05-02T13:15:11;96732.31;;;17.08;51.64
69411;BME280;56604;48.652;9.194;2023-05-02T13:17:36;96743.09;;;16.88;53.66
69411;BME280;56604;48.652;9.194;2023-05-02T13:20:01;96739.13;;;17.20;53.73
69411;BME280;56604;48.652;9.194;2023-05-02T13:22:27;96744.13;;;17.26;53.23
69411;BME280;56604;48.652;9.194;2023-05-02T13:24:53;96736.13;;;17.56;52.51
69411;BME280;56604;48.652;9.194;2023-05-02T13:27:18;96736.03;;;17.42;51.15